sensor_id;sensor_type;location;lat;lon;timestamp;temperature;humidity
16267;DHT22;8241;48.786;9.250;2022-08-14T00:00:38;21.50;85.10
16267;DHT22;8241;48.786;9.250;2022-08-14T00:03:04;21.30;85.80
16267;DHT22;8241;48.786;9.250;2022-08-14T00:05:32;21.20;86.10
16267;DHT22;8241;48.786;9.250;2022-08-14T00:07:59;21.10;86.60
16267;DHT22;8241;48.786;9.250;2022-08-14T00:10:26;21.20;87.10
16267;DHT22;8241;48.786;9.250;2022-08-14T00:12:53;21.10;87.00
16267;DHT22;8241;48.786;9.250;2022-08-14T00:15:21;21.10;87.20
16267;DHT22;8241;48.786;9.250;2022-08-14T00:17:49;21.00;87.50
16267;DHT22;8241;48.786;9.250;2022-08-14T00:20:16;21.20;86.40
16267;DHT22;8241;48.786;9.250;2022-08-14T00:22:46;21.30;86.70
16267;DHT22;8241;48.786;9.250;2022-08-14T00:25:12;21.20;86.60
16267;DHT22;8241;48.786;9.250;2022-08-14T00:27:39;20.90;86.20
16267;DHT22;8241;48.786;9.250;2022-08-14T00:30:06;20.80;87.00
16267;DHT22;8241;48.786;9.250;2022-08-14T00:32:34;21.00;87.60
16267;DHT22;8241;48.786;9.250;2022-08-14T00:35:00;21.00;87.80
16267;DHT22;8241;48.786;9.250;2022-08-14T00:37:27;21.00;88.00
16267;DHT22;8241;48.786;9.250;2022-08-14T00:39:57;21.10;89.40
16267;DHT22;8241;48.786;9.250;2022-08-14T00:42:24;20.90;88.20
16267;DHT22;8241;48.786;9.250;2022-08-14T00:44:52;20.80;88.90
16267;DHT22;8241;48.786;9.250;2022-08-14T00:47:19;20.90;89.50
16267;DHT22;8241;48.786;9.250;2022-08-14T00:49:49;20.90;89.20
16267;DHT22;8241;48.786;9.250;2022-08-14T00:52:15;20.90;88.30
16267;DHT22;8241;48.786;9.250;2022-08-14T00:54:45;20.80;88.20
16267;DHT22;8241;48.786;9.250;2022-08-14T00:57:18;20.80;88.60
16267;DHT22;8241;48.786;9.250;2022-08-14T01:02:49;20.80;89.40
16267;DHT22;8241;48.786;9.250;2022-08-14T01:05:22;20.70;89.80
16267;DHT22;8241;48.786;9.250;2022-08-14T01:07:49;20.60;89.60
16267;DHT22;8241;48.786;9.250;2022-08-14T01:10:19;20.60;89.40
16267;DHT22;8241;48.786;9.250;2022-08-14T01:12:47;20.40;90.00
16267;DHT22;8241;48.786;9.250;2022-08-14T01:15:14;20.40;90.10
16267;DHT22;8241;48.786;9.250;2022-08-14T01:17:50;20.10;90.70
16267;DHT22;8241;48.786;9.250;2022-08-14T01:20:34;19.80;91.10
16267;DHT22;8241;48.786;9.250;2022-08-14T01:23:35;19.70;91.60
16267;DHT22;8241;48.786;9.250;2022-08-14T01:26:02;19.70;91.80
16267;DHT22;8241;48.786;9.250;2022-08-14T01:28:29;20.00;91.40
16267;DHT22;8241;48.786;9.250;2022-08-14T01:30:59;20.00;91.20
16267;DHT22;8241;48.786;9.250;2022-08-14T01:33:27;19.90;91.30
16267;DHT22;8241;48.786;9.250;2022-08-14T01:35:55;19.80;91.20
16267;DHT22;8241;48.786;9.250;2022-08-14T01:38:25;19.80;91.00
16267;DHT22;8241;48.786;9.250;2022-08-14T01:41:06;19.70;90.90
16267;DHT22;8241;48.786;9.250;2022-08-14T01:43:41;19.70;91.10
16267;DHT22;8241;48.786;9.250;2022-08-14T01:46:08;19.70;91.10
16267;DHT22;8241;48.786;9.250;2022-08-14T01:51:26;19.70;91.10
16267;DHT22;8241;48.786;9.250;2022-08-14T01:53:53;19.90;90.80
16267;DHT22;8241;48.786;9.250;2022-08-14T01:56:22;19.80;90.60
16267;DHT22;8241;48.786;9.250;2022-08-14T01:58:58;19.70;90.60
16267;DHT22;8241;48.786;9.250;2022-08-14T02:01:24;19.60;90.60
16267;DHT22;8241;48.786;9.250;2022-08-14T02:03:51;19.70;90.50
16267;DHT22;8241;48.786;9.250;2022-08-14T02:06:18;19.70;90.80
16267;DHT22;8241;48.786;9.250;2022-08-14T02:08:45;19.70;91.00
16267;DHT22;8241;48.786;9.250;2022-08-14T02:11:12;19.60;91.10
16267;DHT22;8241;48.786;9.250;2022-08-14T02:13:45;19.70;91.00
16267;DHT22;8241;48.786;9.250;2022-08-14T02:16:12;19.80;91.00
16267;DHT22;8241;48.786;9.250;2022-08-14T02:18:41;19.50;91.10
16267;DHT22;8241;48.786;9.250;2022-08-14T02:21:08;19.60;90.90
16267;DHT22;8241;48.786;9.250;2022-08-14T02:23:36;19.70;90.90
16267;DHT22;8241;48.786;9.250;2022-08-14T02:26:12;19.70;91.00
16267;DHT22;8241;48.786;9.250;2022-08-14T02:28:39;19.60;91.10
16267;DHT22;8241;48.786;9.250;2022-08-14T02:31:07;19.60;91.20
16267;DHT22;8241;48.786;9.250;2022-08-14T02:33:36;19.60;91.30
16267;DHT22;8241;48.786;9.250;2022-08-14T02:36:03;19.70;91.10
16267;DHT22;8241;48.786;9.250;2022-08-14T02:38:30;19.50;91.10
16267;DHT22;8241;48.786;9.250;2022-08-14T02:40:57;19.60;90.50
16267;DHT22;8241;48.786;9.250;2022-08-14T02:43:24;19.60;90.50
16267;DHT22;8241;48.786;9.250;2022-08-14T02:45:51;19.60;90.70
16267;DHT22;8241;48.786;9.250;2022-08-14T02:48:19;19.50;90.70
16267;DHT22;8241;48.786;9.250;2022-08-14T02:50:46;19.30;91.10
16267;DHT22;8241;48.786;9.250;2022-08-14T02:53:13;19.20;91.50
16267;DHT22;8241;48.786;9.250;2022-08-14T02:55:42;18.90;91.80
16267;DHT22;8241;48.786;9.250;2022-08-14T02:58:08;18.90;92.00
16267;DHT22;8241;48.786;9.250;2022-08-14T03:00:43;18.90;92.00
16267;DHT22;8241;48.786;9.250;2022-08-14T03:03:10;19.00;92.00
16267;DHT22;8241;48.786;9.250;2022-08-14T03:08:19;19.10;91.80
16267;DHT22;8241;48.786;9.250;2022-08-14T03:13:54;18.90;92.50
16267;DHT22;8241;48.786;9.250;2022-08-14T03:16:23;18.70;92.70
16267;DHT22;8241;48.786;9.250;2022-08-14T03:19:02;18.70;92.80
16267;DHT22;8241;48.786;9.250;2022-08-14T03:21:43;18.80;92.60
16267;DHT22;8241;48.786;9.250;2022-08-14T03:24:11;18.80;92.60
16267;DHT22;8241;48.786;9.250;2022-08-14T03:26:39;18.70;93.00
16267;DHT22;8241;48.786;9.250;2022-08-14T03:29:06;18.70;93.20
16267;DHT22;8241;48.786;9.250;2022-08-14T03:31:33;18.60;93.30
16267;DHT22;8241;48.786;9.250;2022-08-14T03:34:00;18.60;93.20
16267;DHT22;8241;48.786;9.250;2022-08-14T03:36:27;18.40;93.20
16267;DHT22;8241;48.786;9.250;2022-08-14T03:38:56;18.30;93.40
16267;DHT22;8241;48.786;9.250;2022-08-14T03:41:26;18.20;93.40
16267;DHT22;8241;48.786;9.250;2022-08-14T03:43:55;18.10;93.60
16267;DHT22;8241;48.786;9.250;2022-08-14T03:46:22;18.00;93.70
16267;DHT22;8241;48.786;9.250;2022-08-14T03:48:50;18.00;93.80
16267;DHT22;8241;48.786;9.250;2022-08-14T03:51:19;18.00;93.70
16267;DHT22;8241;48.786;9.250;2022-08-14T03:53:46;18.00;93.70
16267;DHT22;8241;48.786;9.250;2022-08-14T03:56:14;17.90;93.70
16267;DHT22;8241;48.786;9.250;2022-08-14T03:58:43;18.10;93.80
16267;DHT22;8241;48.786;9.250;2022-08-14T04:01:10;18.10;93.70
16267;DHT22;8241;48.786;9.250;2022-08-14T04:03:38;18.10;93.60
16267;DHT22;8241;48.786;9.250;2022-08-14T04:06:18;18.10;93.60
16267;DHT22;8241;48.786;9.250;2022-08-14T04:08:46;18.10;93.80
16267;DHT22;8241;48.786;9.250;2022-08-14T04:11:14;18.10;93.70
16267;DHT22;8241;48.786;9.250;2022-08-14T04:13:42;18.00;93.80
16267;DHT22;8241;48.786;9.250;2022-08-14T04:16:10;17.90;94.10
16267;DHT22;8241;48.786;9.250;2022-08-14T04:18:39;18.00;94.10
16267;DHT22;8241;48.786;9.250;2022-08-14T04:21:06;17.90;94.30
16267;DHT22;8241;48.786;9.250;2022-08-14T04:23:33;17.90;94.40
16267;DHT22;8241;48.786;9.250;2022-08-14T04:26:00;17.70;94.50
16267;DHT22;8241;48.786;9.250;2022-08-14T04:28:27;17.80;94.60
16267;DHT22;8241;48.786;9.250;2022-08-14T04:30:55;17.80;94.40
16267;DHT22;8241;48.786;9.250;2022-08-14T04:33:22;17.90;94.40
16267;DHT22;8241;48.786;9.250;2022-08-14T04:35:49;17.80;94.40
16267;DHT22;8241;48.786;9.250;2022-08-14T04:38:19;17.80;94.30
16267;DHT22;8241;48.786;9.250;2022-08-14T04:41:04;17.70;94.50
16267;DHT22;8241;48.786;9.250;2022-08-14T04:43:48;17.60;94.70
16267;DHT22;8241;48.786;9.250;2022-08-14T04:46:17;17.50;94.90
16267;DHT22;8241;48.786;9.250;2022-08-14T04:48:47;17.40;95.10
16267;DHT22;8241;48.786;9.250;2022-08-14T04:51:13;17.30;95.30
16267;DHT22;8241;48.786;9.250;2022-08-14T04:53:41;17.40;95.30
16267;DHT22;8241;48.786;9.250;2022-08-14T04:59:36;17.40;95.40
16267;DHT22;8241;48.786;9.250;2022-08-14T05:02:04;17.30;96.40
16267;DHT22;8241;48.786;9.250;2022-08-14T05:04:31;17.10;97.30
16267;DHT22;8241;48.786;9.250;2022-08-14T05:06:58;17.20;96.40
16267;DHT22;8241;48.786;9.250;2022-08-14T05:09:25;17.30;96.40
16267;DHT22;8241;48.786;9.250;2022-08-14T05:12:03;17.30;96.10
16267;DHT22;8241;48.786;9.250;2022-08-14T05:14:30;17.30;96.10
16267;DHT22;8241;48.786;9.250;2022-08-14T05:19:55;17.40;95.90
16267;DHT22;8241;48.786;9.250;2022-08-14T05:22:22;17.60;95.80
16267;DHT22;8241;48.786;9.250;2022-08-14T05:28:18;17.80;95.10
16267;DHT22;8241;48.786;9.250;2022-08-14T05:30:45;17.70;95.10
16267;DHT22;8241;48.786;9.250;2022-08-14T05:33:12;17.80;95.50
16267;DHT22;8241;48.786;9.250;2022-08-14T05:35:41;17.80;95.20
16267;DHT22;8241;48.786;9.250;2022-08-14T05:38:09;17.80;95.20
16267;DHT22;8241;48.786;9.250;2022-08-14T05:40:37;17.80;95.30
16267;DHT22;8241;48.786;9.250;2022-08-14T05:43:12;17.70;95.50
16267;DHT22;8241;48.786;9.250;2022-08-14T05:45:38;17.70;95.60
16267;DHT22;8241;48.786;9.250;2022-08-14T05:48:06;17.60;95.70
16267;DHT22;8241;48.786;9.250;2022-08-14T05:50:33;17.70;95.70
16267;DHT22;8241;48.786;9.250;2022-08-14T05:53:04;17.70;95.60
16267;DHT22;8241;48.786;9.250;2022-08-14T05:55:31;17.90;95.50
16267;DHT22;8241;48.786;9.250;2022-08-14T05:57:59;17.90;95.80
16267;DHT22;8241;48.786;9.250;2022-08-14T06:00:26;18.00;95.40
16267;DHT22;8241;48.786;9.250;2022-08-14T06:02:59;18.10;95.30
16267;DHT22;8241;48.786;9.250;2022-08-14T06:05:26;18.10;95.00
16267;DHT22;8241;48.786;9.250;2022-08-14T06:07:53;18.20;94.80
16267;DHT22;8241;48.786;9.250;2022-08-14T06:10:29;18.20;94.70
16267;DHT22;8241;48.786;9.250;2022-08-14T06:12:56;18.30;94.50
16267;DHT22;8241;48.786;9.250;2022-08-14T06:18:03;18.30;94.30
16267;DHT22;8241;48.786;9.250;2022-08-14T06:20:30;18.50;94.10
16267;DHT22;8241;48.786;9.250;2022-08-14T06:26:27;18.60;94.10
16267;DHT22;8241;48.786;9.250;2022-08-14T06:28:54;18.60;94.20
16267;DHT22;8241;48.786;9.250;2022-08-14T06:31:20;18.70;94.00
16267;DHT22;8241;48.786;9.250;2022-08-14T06:33:47;18.80;94.00
16267;DHT22;8241;48.786;9.250;2022-08-14T06:36:16;18.80;93.80
16267;DHT22;8241;48.786;9.250;2022-08-14T06:38:42;19.00;93.70
16267;DHT22;8241;48.786;9.250;2022-08-14T06:41:09;19.20;93.30
16267;DHT22;8241;48.786;9.250;2022-08-14T06:43:37;19.30;93.20
16267;DHT22;8241;48.786;9.250;2022-08-14T06:46:04;19.40;93.00
16267;DHT22;8241;48.786;9.250;2022-08-14T06:51:23;19.60;92.70
16267;DHT22;8241;48.786;9.250;2022-08-14T06:53:50;19.70;92.30
16267;DHT22;8241;48.786;9.250;2022-08-14T06:59:47;19.90;92.20
16267;DHT22;8241;48.786;9.250;2022-08-14T07:02:31;20.20;91.80
16267;DHT22;8241;48.786;9.250;2022-08-14T07:05:16;20.40;91.50
16267;DHT22;8241;48.786;9.250;2022-08-14T07:08:00;20.60;91.10
16267;DHT22;8241;48.786;9.250;2022-08-14T07:10:27;21.00;90.70
16267;DHT22;8241;48.786;9.250;2022-08-14T07:12:53;21.00;90.30
16267;DHT22;8241;48.786;9.250;2022-08-14T07:18:50;21.20;90.30
16267;DHT22;8241;48.786;9.250;2022-08-14T07:21:17;21.40;90.20
16267;DHT22;8241;48.786;9.250;2022-08-14T07:23:43;21.40;90.10
16267;DHT22;8241;48.786;9.250;2022-08-14T07:26:10;21.60;90.00
16267;DHT22;8241;48.786;9.250;2022-08-14T07:28:38;21.70;88.50
16267;DHT22;8241;48.786;9.250;2022-08-14T07:31:06;21.70;88.60
16267;DHT22;8241;48.786;9.250;2022-08-14T07:33:34;21.90;88.30
16267;DHT22;8241;48.786;9.250;2022-08-14T07:36:03;22.10;87.30
16267;DHT22;8241;48.786;9.250;2022-08-14T07:38:30;22.40;87.20
16267;DHT22;8241;48.786;9.250;2022-08-14T07:40:57;22.40;86.80
16267;DHT22;8241;48.786;9.250;2022-08-14T07:43:40;22.40;86.60
16267;DHT22;8241;48.786;9.250;2022-08-14T07:46:07;22.40;86.70
16267;DHT22;8241;48.786;9.250;2022-08-14T07:48:36;22.60;86.10
16267;DHT22;8241;48.786;9.250;2022-08-14T07:51:06;22.90;85.70
16267;DHT22;8241;48.786;9.250;2022-08-14T07:53:33;22.90;85.90
16267;DHT22;8241;48.786;9.250;2022-08-14T07:56:00;22.70;86.10
16267;DHT22;8241;48.786;9.250;2022-08-14T07:58:27;22.60;86.70
16267;DHT22;8241;48.786;9.250;2022-08-14T08:00:53;22.70;85.70
16267;DHT22;8241;48.786;9.250;2022-08-14T08:03:20;22.90;85.80
16267;DHT22;8241;48.786;9.250;2022-08-14T08:05:48;23.00;85.70
16267;DHT22;8241;48.786;9.250;2022-08-14T08:08:16;23.10;85.10
16267;DHT22;8241;48.786;9.250;2022-08-14T08:10:44;23.30;84.40
16267;DHT22;8241;48.786;9.250;2022-08-14T08:13:12;23.50;84.00
16267;DHT22;8241;48.786;9.250;2022-08-14T08:15:39;23.50;83.90
16267;DHT22;8241;48.786;9.250;2022-08-14T08:18:07;23.70;83.70
16267;DHT22;8241;48.786;9.250;2022-08-14T08:20:35;23.70;83.60
16267;DHT22;8241;48.786;9.250;2022-08-14T08:23:04;23.90;84.00
16267;DHT22;8241;48.786;9.250;2022-08-14T08:25:33;24.20;83.70
16267;DHT22;8241;48.786;9.250;2022-08-14T08:28:01;24.50;82.40
16267;DHT22;8241;48.786;9.250;2022-08-14T08:30:29;25.00;82.00
16267;DHT22;8241;48.786;9.250;2022-08-14T08:32:56;25.50;79.30
16267;DHT22;8241;48.786;9.250;2022-08-14T08:35:24;25.60;79.20
16267;DHT22;8241;48.786;9.250;2022-08-14T08:40:42;25.90;78.10
16267;DHT22;8241;48.786;9.250;2022-08-14T08:46:38;26.40;76.50
16267;DHT22;8241;48.786;9.250;2022-08-14T08:49:09;26.90;74.80
16267;DHT22;8241;48.786;9.250;2022-08-14T08:51:36;27.30;74.00
16267;DHT22;8241;48.786;9.250;2022-08-14T08:54:04;28.10;71.40
16267;DHT22;8241;48.786;9.250;2022-08-14T08:56:33;28.60;70.20
16267;DHT22;8241;48.786;9.250;2022-08-14T08:59:00;29.00;69.00
16267;DHT22;8241;48.786;9.250;2022-08-14T09:01:27;29.50;67.50
16267;DHT22;8241;48.786;9.250;2022-08-14T09:04:00;30.20;65.30
16267;DHT22;8241;48.786;9.250;2022-08-14T09:06:42;30.10;64.90
16267;DHT22;8241;48.786;9.250;2022-08-14T09:09:15;29.80;65.70
16267;DHT22;8241;48.786;9.250;2022-08-14T09:11:43;30.20;63.90
16267;DHT22;8241;48.786;9.250;2022-08-14T09:14:10;31.40;62.40
16267;DHT22;8241;48.786;9.250;2022-08-14T09:16:37;31.80;61.00
16267;DHT22;8241;48.786;9.250;2022-08-14T09:19:04;31.60;59.60
16267;DHT22;8241;48.786;9.250;2022-08-14T09:21:31;31.90;59.00
16267;DHT22;8241;48.786;9.250;2022-08-14T09:23:59;31.90;59.40
16267;DHT22;8241;48.786;9.250;2022-08-14T09:26:26;32.10;58.60
16267;DHT22;8241;48.786;9.250;2022-08-14T09:28:54;32.40;58.10
16267;DHT22;8241;48.786;9.250;2022-08-14T09:31:21;32.50;58.60
16267;DHT22;8241;48.786;9.250;2022-08-14T09:36:59;31.70;59.10
16267;DHT22;8241;48.786;9.250;2022-08-14T09:39:47;31.60;59.20
16267;DHT22;8241;48.786;9.250;2022-08-14T09:45:08;31.80;59.40
16267;DHT22;8241;48.786;9.250;2022-08-14T09:51:06;31.00;59.80
16267;DHT22;8241;48.786;9.250;2022-08-14T09:53:34;31.10;59.80
16267;DHT22;8241;48.786;9.250;2022-08-14T09:56:01;31.40;59.10
16267;DHT22;8241;48.786;9.250;2022-08-14T09:58:34;32.00;58.50
16267;DHT22;8241;48.786;9.250;2022-08-14T10:04:16;32.20;58.30
16267;DHT22;8241;48.786;9.250;2022-08-14T10:06:45;32.10;58.40
16267;DHT22;8241;48.786;9.250;2022-08-14T10:09:12;31.70;58.50
16267;DHT22;8241;48.786;9.250;2022-08-14T10:11:39;31.70;58.90
16267;DHT22;8241;48.786;9.250;2022-08-14T10:14:13;32.20;59.00
16267;DHT22;8241;48.786;9.250;2022-08-14T10:16:56;32.40;58.30
16267;DHT22;8241;48.786;9.250;2022-08-14T10:19:47;32.70;57.90
16267;DHT22;8241;48.786;9.250;2022-08-14T10:22:14;33.10;57.60
16267;DHT22;8241;48.786;9.250;2022-08-14T10:24:42;32.90;56.90
16267;DHT22;8241;48.786;9.250;2022-08-14T10:27:14;32.70;57.40
16267;DHT22;8241;48.786;9.250;2022-08-14T10:29:43;31.70;58.70
16267;DHT22;8241;48.786;9.250;2022-08-14T10:32:10;31.40;59.30
16267;DHT22;8241;48.786;9.250;2022-08-14T10:34:38;31.20;59.10
16267;DHT22;8241;48.786;9.250;2022-08-14T10:37:08;30.80;59.50
16267;DHT22;8241;48.786;9.250;2022-08-14T10:39:35;30.90;60.00
16267;DHT22;8241;48.786;9.250;2022-08-14T10:42:10;30.80;60.40
16267;DHT22;8241;48.786;9.250;2022-08-14T10:44:38;30.80;59.90
16267;DHT22;8241;48.786;9.250;2022-08-14T10:47:05;30.90;59.50
16267;DHT22;8241;48.786;9.250;2022-08-14T10:49:35;30.40;59.80
16267;DHT22;8241;48.786;9.250;2022-08-14T10:52:03;30.00;60.20
16267;DHT22;8241;48.786;9.250;2022-08-14T10:54:34;30.10;61.10
16267;DHT22;8241;48.786;9.250;2022-08-14T10:59:53;30.60;60.00
16267;DHT22;8241;48.786;9.250;2022-08-14T11:02:24;30.50;59.80
16267;DHT22;8241;48.786;9.250;2022-08-14T11:07:54;30.30;61.10
16267;DHT22;8241;48.786;9.250;2022-08-14T11:10:23;30.40;60.40
16267;DHT22;8241;48.786;9.250;2022-08-14T11:12:51;30.30;60.30
16267;DHT22;8241;48.786;9.250;2022-08-14T11:15:21;30.10;60.10
16267;DHT22;8241;48.786;9.250;2022-08-14T11:17:48;30.10;60.30
16267;DHT22;8241;48.786;9.250;2022-08-14T11:20:16;30.30;59.60
16267;DHT22;8241;48.786;9.250;2022-08-14T11:26:13;30.50;59.70
16267;DHT22;8241;48.786;9.250;2022-08-14T11:28:44;30.30;59.70
16267;DHT22;8241;48.786;9.250;2022-08-14T11:31:11;30.50;59.50
16267;DHT22;8241;48.786;9.250;2022-08-14T11:33:38;30.70;59.20
16267;DHT22;8241;48.786;9.250;2022-08-14T11:36:06;30.50;57.50
16267;DHT22;8241;48.786;9.250;2022-08-14T11:38:34;30.40;59.00
16267;DHT22;8241;48.786;9.250;2022-08-14T11:41:01;30.50;59.00
16267;DHT22;8241;48.786;9.250;2022-08-14T11:43:29;30.40;59.10
16267;DHT22;8241;48.786;9.250;2022-08-14T11:45:56;30.50;58.70
16267;DHT22;8241;48.786;9.250;2022-08-14T11:48:24;30.70;58.90
16267;DHT22;8241;48.786;9.250;2022-08-14T11:54:19;30.80;58.70
16267;DHT22;8241;48.786;9.250;2022-08-14T11:59:34;30.80;58.10
16267;DHT22;8241;48.786;9.250;2022-08-14T12:02:08;31.10;58.50
16267;DHT22;8241;48.786;9.250;2022-08-14T12:04:35;31.20;57.50
16267;DHT22;8241;48.786;9.250;2022-08-14T12:07:08;31.30;57.40
16267;DHT22;8241;48.786;9.250;2022-08-14T12:09:35;31.40;57.00
16267;DHT22;8241;48.786;9.250;2022-08-14T12:12:11;31.80;56.60
16267;DHT22;8241;48.786;9.250;2022-08-14T12:14:47;31.80;56.10
16267;DHT22;8241;48.786;9.250;2022-08-14T12:17:15;31.80;55.00
16267;DHT22;8241;48.786;9.250;2022-08-14T12:19:42;32.00;55.00
16267;DHT22;8241;48.786;9.250;2022-08-14T12:22:09;32.30;54.30
16267;DHT22;8241;48.786;9.250;2022-08-14T12:24:36;32.70;54.10
16267;DHT22;8241;48.786;9.250;2022-08-14T12:27:03;33.10;53.30
16267;DHT22;8241;48.786;9.250;2022-08-14T12:29:30;32.90;53.90
16267;DHT22;8241;48.786;9.250;2022-08-14T12:31:58;33.20;52.80
16267;DHT22;8241;48.786;9.250;2022-08-14T12:34:37;33.20;51.90
16267;DHT22;8241;48.786;9.250;2022-08-14T12:37:05;33.50;51.30
16267;DHT22;8241;48.786;9.250;2022-08-14T12:39:33;34.30;52.30
16267;DHT22;8241;48.786;9.250;2022-08-14T12:42:00;35.60;49.70
16267;DHT22;8241;48.786;9.250;2022-08-14T12:44:32;35.50;48.80
16267;DHT22;8241;48.786;9.250;2022-08-14T12:47:05;35.30;48.90
16267;DHT22;8241;48.786;9.250;2022-08-14T12:49:34;35.20;49.30
16267;DHT22;8241;48.786;9.250;2022-08-14T12:52:01;35.40;50.30
16267;DHT22;8241;48.786;9.250;2022-08-14T12:54:28;36.00;49.50
16267;DHT22;8241;48.786;9.250;2022-08-14T12:57:02;36.40;48.10
16267;DHT22;8241;48.786;9.250;2022-08-14T12:59:29;36.00;49.00
16267;DHT22;8241;48.786;9.250;2022-08-14T13:01:57;37.50;46.60
16267;DHT22;8241;48.786;9.250;2022-08-14T13:04:33;37.50;47.10
16267;DHT22;8241;48.786;9.250;2022-08-14T13:07:02;37.70;46.70
16267;DHT22;8241;48.786;9.250;2022-08-14T13:09:31;38.20;45.30
16267;DHT22;8241;48.786;9.250;2022-08-14T13:11:59;38.70;45.20
16267;DHT22;8241;48.786;9.250;2022-08-14T13:14:27;38.00;45.80
16267;DHT22;8241;48.786;9.250;2022-08-14T13:16:58;38.50;45.20
16267;DHT22;8241;48.786;9.250;2022-08-14T13:19:26;39.40;44.80
16267;DHT22;8241;48.786;9.250;2022-08-14T13:21:55;38.90;45.40
16267;DHT22;8241;48.786;9.250;2022-08-14T13:24:22;38.70;45.60
16267;DHT22;8241;48.786;9.250;2022-08-14T13:26:49;38.80;46.20
16267;DHT22;8241;48.786;9.250;2022-08-14T13:32:03;38.60;46.40
16267;DHT22;8241;48.786;9.250;2022-08-14T13:34:30;37.40;46.60
16267;DHT22;8241;48.786;9.250;2022-08-14T13:36:58;37.60;46.60
16267;DHT22;8241;48.786;9.250;2022-08-14T13:39:26;38.40;44.90
16267;DHT22;8241;48.786;9.250;2022-08-14T13:41:53;39.70;45.30
16267;DHT22;8241;48.786;9.250;2022-08-14T13:44:25;41.10;43.40
16267;DHT22;8241;48.786;9.250;2022-08-14T13:46:53;40.80;42.90
16267;DHT22;8241;48.786;9.250;2022-08-14T13:49:19;40.00;43.70
16267;DHT22;8241;48.786;9.250;2022-08-14T13:51:47;40.40;41.80
16267;DHT22;8241;48.786;9.250;2022-08-14T13:54:18;38.90;43.80
16267;DHT22;8241;48.786;9.250;2022-08-14T13:56:45;37.90;44.00
16267;DHT22;8241;48.786;9.250;2022-08-14T13:59:12;37.40;44.60
16267;DHT22;8241;48.786;9.250;2022-08-14T14:01:39;37.00;45.90
16267;DHT22;8241;48.786;9.250;2022-08-14T14:04:12;37.50;45.60
16267;DHT22;8241;48.786;9.250;2022-08-14T14:06:39;37.10;44.70
16267;DHT22;8241;48.786;9.250;2022-08-14T14:09:08;36.70;45.00
16267;DHT22;8241;48.786;9.250;2022-08-14T14:11:37;36.30;45.20
16267;DHT22;8241;48.786;9.250;2022-08-14T14:14:03;35.40;45.60
16267;DHT22;8241;48.786;9.250;2022-08-14T14:16:30;35.60;46.10
16267;DHT22;8241;48.786;9.250;2022-08-14T14:18:57;35.80;45.40
16267;DHT22;8241;48.786;9.250;2022-08-14T14:21:27;35.70;45.60
16267;DHT22;8241;48.786;9.250;2022-08-14T14:23:55;35.40;46.70
16267;DHT22;8241;48.786;9.250;2022-08-14T14:29:25;34.80;46.80
16267;DHT22;8241;48.786;9.250;2022-08-14T14:31:52;35.50;47.10
16267;DHT22;8241;48.786;9.250;2022-08-14T14:34:20;35.70;46.80
16267;DHT22;8241;48.786;9.250;2022-08-14T14:36:49;35.70;46.50
16267;DHT22;8241;48.786;9.250;2022-08-14T14:39:16;35.60;46.70
16267;DHT22;8241;48.786;9.250;2022-08-14T14:41:45;35.20;47.70
16267;DHT22;8241;48.786;9.250;2022-08-14T14:44:15;35.30;47.90
16267;DHT22;8241;48.786;9.250;2022-08-14T14:46:45;35.60;48.30
16267;DHT22;8241;48.786;9.250;2022-08-14T14:49:14;35.40;47.20
16267;DHT22;8241;48.786;9.250;2022-08-14T14:51:42;35.60;47.80
16267;DHT22;8241;48.786;9.250;2022-08-14T14:54:10;36.10;46.90
16267;DHT22;8241;48.786;9.250;2022-08-14T14:56:37;35.10;47.60
16267;DHT22;8241;48.786;9.250;2022-08-14T14:59:24;34.70;49.00
16267;DHT22;8241;48.786;9.250;2022-08-14T15:01:53;34.60;47.80
16267;DHT22;8241;48.786;9.250;2022-08-14T15:04:23;34.70;47.70
16267;DHT22;8241;48.786;9.250;2022-08-14T15:06:50;34.60;48.60
16267;DHT22;8241;48.786;9.250;2022-08-14T15:09:17;34.80;47.30
16267;DHT22;8241;48.786;9.250;2022-08-14T15:11:44;35.00;48.60
16267;DHT22;8241;48.786;9.250;2022-08-14T15:14:11;35.20;47.40
16267;DHT22;8241;48.786;9.250;2022-08-14T15:16:39;35.50;47.50
16267;DHT22;8241;48.786;9.250;2022-08-14T15:22:35;35.60;47.60
16267;DHT22;8241;48.786;9.250;2022-08-14T15:25:04;35.10;49.40
16267;DHT22;8241;48.786;9.250;2022-08-14T15:27:31;34.30;48.50
16267;DHT22;8241;48.786;9.250;2022-08-14T15:29:58;34.20;48.90
16267;DHT22;8241;48.786;9.250;2022-08-14T15:32:25;34.10;48.90
16267;DHT22;8241;48.786;9.250;2022-08-14T15:34:54;34.30;50.40
16267;DHT22;8241;48.786;9.250;2022-08-14T15:37:22;33.90;49.30
16267;DHT22;8241;48.786;9.250;2022-08-14T15:39:50;34.00;49.70
16267;DHT22;8241;48.786;9.250;2022-08-14T15:42:17;34.10;50.00
16267;DHT22;8241;48.786;9.250;2022-08-14T15:44:45;34.10;48.70
16267;DHT22;8241;48.786;9.250;2022-08-14T15:47:13;33.80;48.80
16267;DHT22;8241;48.786;9.250;2022-08-14T15:49:39;33.90;49.00
16267;DHT22;8241;48.786;9.250;2022-08-14T15:52:06;33.80;48.60
16267;DHT22;8241;48.786;9.250;2022-08-14T15:58:03;33.90;49.20
16267;DHT22;8241;48.786;9.250;2022-08-14T16:00:31;33.80;48.80
16267;DHT22;8241;48.786;9.250;2022-08-14T16:06:19;33.90;48.30
16267;DHT22;8241;48.786;9.250;2022-08-14T16:08:47;33.70;47.50
16267;DHT22;8241;48.786;9.250;2022-08-14T16:11:14;33.60;47.70
16267;DHT22;8241;48.786;9.250;2022-08-14T16:13:42;33.50;47.80
16267;DHT22;8241;48.786;9.250;2022-08-14T16:16:11;33.30;47.80
16267;DHT22;8241;48.786;9.250;2022-08-14T16:18:38;33.30;49.10
16267;DHT22;8241;48.786;9.250;2022-08-14T16:21:06;33.20;48.30
16267;DHT22;8241;48.786;9.250;2022-08-14T16:23:34;33.00;48.40
16267;DHT22;8241;48.786;9.250;2022-08-14T16:26:02;33.00;48.40
16267;DHT22;8241;48.786;9.250;2022-08-14T16:28:30;33.00;48.70
16267;DHT22;8241;48.786;9.250;2022-08-14T16:30:59;33.00;49.90
16267;DHT22;8241;48.786;9.250;2022-08-14T16:36:17;33.10;48.80
16267;DHT22;8241;48.786;9.250;2022-08-14T16:38:48;33.20;48.60
16267;DHT22;8241;48.786;9.250;2022-08-14T16:41:16;33.10;48.70
16267;DHT22;8241;48.786;9.250;2022-08-14T16:43:45;33.00;48.90
16267;DHT22;8241;48.786;9.250;2022-08-14T16:46:13;32.90;48.10
16267;DHT22;8241;48.786;9.250;2022-08-14T16:48:42;32.80;48.00
16267;DHT22;8241;48.786;9.250;2022-08-14T16:54:37;32.70;49.70
16267;DHT22;8241;48.786;9.250;2022-08-14T16:57:14;32.40;48.00
16267;DHT22;8241;48.786;9.250;2022-08-14T16:59:46;32.30;48.10
16267;DHT22;8241;48.786;9.250;2022-08-14T17:02:15;32.30;51.20
16267;DHT22;8241;48.786;9.250;2022-08-14T17:04:41;32.20;49.30
16267;DHT22;8241;48.786;9.250;2022-08-14T17:07:09;32.00;48.60
16267;DHT22;8241;48.786;9.250;2022-08-14T17:09:36;32.00;49.10
16267;DHT22;8241;48.786;9.250;2022-08-14T17:12:05;32.00;50.10
16267;DHT22;8241;48.786;9.250;2022-08-14T17:14:52;31.90;49.40
16267;DHT22;8241;48.786;9.250;2022-08-14T17:17:23;31.90;48.80
16267;DHT22;8241;48.786;9.250;2022-08-14T17:19:56;31.90;50.00
16267;DHT22;8241;48.786;9.250;2022-08-14T17:25:07;31.70;50.70
16267;DHT22;8241;48.786;9.250;2022-08-14T17:27:34;31.60;52.20
16267;DHT22;8241;48.786;9.250;2022-08-14T17:30:01;31.50;50.70
16267;DHT22;8241;48.786;9.250;2022-08-14T17:32:30;31.40;52.80